sensor_id;sensor_type;location;lat;lon;timestamp;temperature;humidity
32809;DHT22;19159;48.178;16.386;2023-06-26T00:00:03;24.70;88.80
32809;DHT22;19159;48.178;16.386;2023-06-26T00:02:30;24.60;88.80
32809;DHT22;19159;48.178;16.386;2023-06-26T00:04:58;24.60;88.80
32809;DHT22;19159;48.178;16.386;2023-06-26T00:07:24;24.60;88.70
32809;DHT22;19159;48.178;16.386;2023-06-26T00:09:49;24.50;88.80
32809;DHT22;19159;48.178;16.386;2023-06-26T00:12:15;24.50;89.00
32809;DHT22;19159;48.178;16.386;2023-06-26T00:14:40;24.50;89.00
32809;DHT22;19159;48.178;16.386;2023-06-26T00:17:06;24.40;89.00
32809;DHT22;19159;48.178;16.386;2023-06-26T00:19:32;24.40;89.20
32809;DHT22;19159;48.178;16.386;2023-06-26T00:21:58;24.30;89.30
32809;DHT22;19159;48.178;16.386;2023-06-26T00:24:24;24.20;89.40
32809;DHT22;19159;48.178;16.386;2023-06-26T00:26:49;24.20;89.50
32809;DHT22;19159;48.178;16.386;2023-06-26T00:29:15;24.10;89.70
32809;DHT22;19159;48.178;16.386;2023-06-26T00:31:41;24.10;89.80
32809;DHT22;19159;48.178;16.386;2023-06-26T00:34:07;24.00;89.90
32809;DHT22;19159;48.178;16.386;2023-06-26T00:36:32;24.00;89.90
32809;DHT22;19159;48.178;16.386;2023-06-26T00:38:59;23.90;89.90
32809;DHT22;19159;48.178;16.386;2023-06-26T00:41:24;23.80;90.00
32809;DHT22;19159;48.178;16.386;2023-06-26T00:43:50;23.80;90.10
32809;DHT22;19159;48.178;16.386;2023-06-26T00:46:16;23.70;90.10
32809;DHT22;19159;48.178;16.386;2023-06-26T00:48:43;23.70;90.20
32809;DHT22;19159;48.178;16.386;2023-06-26T00:51:09;23.70;90.20
32809;DHT22;19159;48.178;16.386;2023-06-26T00:53:35;23.70;90.30
32809;DHT22;19159;48.178;16.386;2023-06-26T00:56:05;23.70;90.30
32809;DHT22;19159;48.178;16.386;2023-06-26T00:58:31;23.60;90.30
32809;DHT22;19159;48.178;16.386;2023-06-26T01:00:57;23.60;90.40
32809;DHT22;19159;48.178;16.386;2023-06-26T01:03:24;23.50;90.40
32809;DHT22;19159;48.178;16.386;2023-06-26T01:05:52;23.50;90.50
32809;DHT22;19159;48.178;16.386;2023-06-26T01:08:18;23.40;90.50
32809;DHT22;19159;48.178;16.386;2023-06-26T01:10:44;23.40;90.90
32809;DHT22;19159;48.178;16.386;2023-06-26T01:13:13;23.40;90.70
32809;DHT22;19159;48.178;16.386;2023-06-26T01:15:40;23.40;90.70
32809;DHT22;19159;48.178;16.386;2023-06-26T01:18:06;23.40;90.70
32809;DHT22;19159;48.178;16.386;2023-06-26T01:20:37;23.40;90.70
32809;DHT22;19159;48.178;16.386;2023-06-26T01:23:16;23.30;90.80
32809;DHT22;19159;48.178;16.386;2023-06-26T01:28:38;23.20;90.90
32809;DHT22;19159;48.178;16.386;2023-06-26T01:31:05;23.20;90.90
32809;DHT22;19159;48.178;16.386;2023-06-26T01:33:32;23.10;91.30
32809;DHT22;19159;48.178;16.386;2023-06-26T01:35:58;23.00;91.10
32809;DHT22;19159;48.178;16.386;2023-06-26T01:38:23;23.00;91.20
32809;DHT22;19159;48.178;16.386;2023-06-26T01:40:50;22.90;91.20
32809;DHT22;19159;48.178;16.386;2023-06-26T01:45:55;22.80;91.40
32809;DHT22;19159;48.178;16.386;2023-06-26T01:48:25;22.80;91.50
32809;DHT22;19159;48.178;16.386;2023-06-26T01:50:53;22.70;91.50
32809;DHT22;19159;48.178;16.386;2023-06-26T01:53:23;22.70;91.60
32809;DHT22;19159;48.178;16.386;2023-06-26T01:56:06;22.70;91.70
32809;DHT22;19159;48.178;16.386;2023-06-26T01:58:33;22.70;91.80
32809;DHT22;19159;48.178;16.386;2023-06-26T02:01:00;22.70;91.70
32809;DHT22;19159;48.178;16.386;2023-06-26T02:03:26;22.70;91.70
32809;DHT22;19159;48.178;16.386;2023-06-26T02:05:52;22.60;91.70
32809;DHT22;19159;48.178;16.386;2023-06-26T02:08:18;22.60;91.80
32809;DHT22;19159;48.178;16.386;2023-06-26T02:10:44;22.60;91.80
32809;DHT22;19159;48.178;16.386;2023-06-26T02:13:09;22.50;91.90
32809;DHT22;19159;48.178;16.386;2023-06-26T02:15:35;22.50;91.90
32809;DHT22;19159;48.178;16.386;2023-06-26T02:18:00;22.50;92.00
32809;DHT22;19159;48.178;16.386;2023-06-26T02:20:26;22.50;92.00
32809;DHT22;19159;48.178;16.386;2023-06-26T02:22:51;22.60;92.00
32809;DHT22;19159;48.178;16.386;2023-06-26T02:25:18;22.60;92.00
32809;DHT22;19159;48.178;16.386;2023-06-26T02:27:43;22.60;91.90
32809;DHT22;19159;48.178;16.386;2023-06-26T02:30:09;22.60;91.90
32809;DHT22;19159;48.178;16.386;2023-06-26T02:32:35;22.60;91.90
32809;DHT22;19159;48.178;16.386;2023-06-26T02:35:01;22.60;92.00
32809;DHT22;19159;48.178;16.386;2023-06-26T02:37:27;22.50;92.00
32809;DHT22;19159;48.178;16.386;2023-06-26T02:39:52;22.50;92.10
32809;DHT22;19159;48.178;16.386;2023-06-26T02:42:18;22.50;92.10
32809;DHT22;19159;48.178;16.386;2023-06-26T02:44:44;22.50;92.10
32809;DHT22;19159;48.178;16.386;2023-06-26T02:47:09;22.40;92.20
32809;DHT22;19159;48.178;16.386;2023-06-26T02:49:35;22.40;92.30
32809;DHT22;19159;48.178;16.386;2023-06-26T02:52:00;22.30;92.30
32809;DHT22;19159;48.178;16.386;2023-06-26T02:54:26;22.30;92.40
32809;DHT22;19159;48.178;16.386;2023-06-26T02:56:52;22.30;92.40
32809;DHT22;19159;48.178;16.386;2023-06-26T02:59:18;22.30;92.40
32809;DHT22;19159;48.178;16.386;2023-06-26T03:01:43;22.30;92.40
32809;DHT22;19159;48.178;16.386;2023-06-26T03:04:09;22.30;92.40
32809;DHT22;19159;48.178;16.386;2023-06-26T03:06:35;22.30;92.40
32809;DHT22;19159;48.178;16.386;2023-06-26T03:09:01;22.30;92.50
32809;DHT22;19159;48.178;16.386;2023-06-26T03:11:28;22.20;92.50
32809;DHT22;19159;48.178;16.386;2023-06-26T03:13:53;22.20;92.60
32809;DHT22;19159;48.178;16.386;2023-06-26T03:16:19;22.20;92.60
32809;DHT22;19159;48.178;16.386;2023-06-26T03:18:45;22.10;92.70
32809;DHT22;19159;48.178;16.386;2023-06-26T03:21:10;22.10;92.70
32809;DHT22;19159;48.178;16.386;2023-06-26T03:23:36;22.10;92.80
32809;DHT22;19159;48.178;16.386;2023-06-26T03:26:01;22.00;92.90
32809;DHT22;19159;48.178;16.386;2023-06-26T03:28:27;22.10;92.90
32809;DHT22;19159;48.178;16.386;2023-06-26T03:30:53;22.00;92.90
32809;DHT22;19159;48.178;16.386;2023-06-26T03:33:18;22.10;93.00
32809;DHT22;19159;48.178;16.386;2023-06-26T03:35:44;22.00;92.90
32809;DHT22;19159;48.178;16.386;2023-06-26T03:38:09;22.00;92.90
32809;DHT22;19159;48.178;16.386;2023-06-26T03:40:35;22.00;92.90
32809;DHT22;19159;48.178;16.386;2023-06-26T03:43:01;22.00;93.00
32809;DHT22;19159;48.178;16.386;2023-06-26T03:45:26;22.00;93.10
32809;DHT22;19159;48.178;16.386;2023-06-26T03:47:52;22.00;93.00
32809;DHT22;19159;48.178;16.386;2023-06-26T03:50:18;22.00;93.00
32809;DHT22;19159;48.178;16.386;2023-06-26T03:52:44;22.00;93.10
32809;DHT22;19159;48.178;16.386;2023-06-26T03:55:10;22.00;93.10
32809;DHT22;19159;48.178;16.386;2023-06-26T03:57:35;22.00;93.10
32809;DHT22;19159;48.178;16.386;2023-06-26T04:00:01;22.00;93.10
32809;DHT22;19159;48.178;16.386;2023-06-26T04:02:31;22.10;93.10
32809;DHT22;19159;48.178;16.386;2023-06-26T04:04:56;22.10;93.10
32809;DHT22;19159;48.178;16.386;2023-06-26T04:07:22;22.10;93.10
32809;DHT22;19159;48.178;16.386;2023-06-26T04:09:48;22.10;93.10
32809;DHT22;19159;48.178;16.386;2023-06-26T04:12:13;22.20;93.10
32809;DHT22;19159;48.178;16.386;2023-06-26T04:14:39;22.20;93.10
32809;DHT22;19159;48.178;16.386;2023-06-26T04:17:05;22.30;93.00
32809;DHT22;19159;48.178;16.386;2023-06-26T04:19:30;22.30;93.00
32809;DHT22;19159;48.178;16.386;2023-06-26T04:21:56;22.30;93.00
32809;DHT22;19159;48.178;16.386;2023-06-26T04:24:22;22.40;93.00
32809;DHT22;19159;48.178;16.386;2023-06-26T04:26:48;22.50;93.00
32809;DHT22;19159;48.178;16.386;2023-06-26T04:29:13;22.70;93.00
32809;DHT22;19159;48.178;16.386;2023-06-26T04:31:39;22.90;92.90
32809;DHT22;19159;48.178;16.386;2023-06-26T04:34:05;23.20;92.70
32809;DHT22;19159;48.178;16.386;2023-06-26T04:36:31;23.40;92.50
32809;DHT22;19159;48.178;16.386;2023-06-26T04:38:57;23.50;92.30
32809;DHT22;19159;48.178;16.386;2023-06-26T04:41:24;23.80;92.10
32809;DHT22;19159;48.178;16.386;2023-06-26T04:43:49;24.00;91.90
32809;DHT22;19159;48.178;16.386;2023-06-26T04:46:15;24.20;91.70
32809;DHT22;19159;48.178;16.386;2023-06-26T04:48:41;24.30;91.40
32809;DHT22;19159;48.178;16.386;2023-06-26T04:51:06;24.50;91.20
32809;DHT22;19159;48.178;16.386;2023-06-26T04:53:32;24.60;91.00
32809;DHT22;19159;48.178;16.386;2023-06-26T04:55:58;24.70;90.80
32809;DHT22;19159;48.178;16.386;2023-06-26T04:58:23;24.90;90.70
32809;DHT22;19159;48.178;16.386;2023-06-26T05:00:49;25.00;90.50
32809;DHT22;19159;48.178;16.386;2023-06-26T05:03:16;25.10;90.40
32809;DHT22;19159;48.178;16.386;2023-06-26T05:05:42;25.30;90.20
32809;DHT22;19159;48.178;16.386;2023-06-26T05:08:21;25.40;90.10
32809;DHT22;19159;48.178;16.386;2023-06-26T05:10:46;25.60;89.60
32809;DHT22;19159;48.178;16.386;2023-06-26T05:13:13;25.70;89.00
32809;DHT22;19159;48.178;16.386;2023-06-26T05:15:41;25.80;89.60
32809;DHT22;19159;48.178;16.386;2023-06-26T05:18:08;26.00;88.50
32809;DHT22;19159;48.178;16.386;2023-06-26T05:20:37;26.20;88.60
32809;DHT22;19159;48.178;16.386;2023-06-26T05:23:04;26.40;87.90
32809;DHT22;19159;48.178;16.386;2023-06-26T05:25:31;26.60;87.50
32809;DHT22;19159;48.178;16.386;2023-06-26T05:27:57;26.80;87.10
32809;DHT22;19159;48.178;16.386;2023-06-26T05:30:27;27.00;86.40
32809;DHT22;19159;48.178;16.386;2023-06-26T05:32:55;27.10;85.90
32809;DHT22;19159;48.178;16.386;2023-06-26T05:35:22;27.30;85.70
32809;DHT22;19159;48.178;16.386;2023-06-26T05:37:49;27.60;85.20
32809;DHT22;19159;48.178;16.386;2023-06-26T05:40:17;27.80;84.60
32809;DHT22;19159;48.178;16.386;2023-06-26T05:42:43;28.00;84.40
32809;DHT22;19159;48.178;16.386;2023-06-26T05:45:10;28.20;83.90
32809;DHT22;19159;48.178;16.386;2023-06-26T05:47:36;28.40;83.60
32809;DHT22;19159;48.178;16.386;2023-06-26T05:50:02;28.60;83.10
32809;DHT22;19159;48.178;16.386;2023-06-26T05:52:28;28.80;82.30
32809;DHT22;19159;48.178;16.386;2023-06-26T05:54:54;28.90;81.70
32809;DHT22;19159;48.178;16.386;2023-06-26T05:57:20;29.00;81.40
32809;DHT22;19159;48.178;16.386;2023-06-26T05:59:46;29.30;81.40
32809;DHT22;19159;48.178;16.386;2023-06-26T06:02:15;29.50;81.10
32809;DHT22;19159;48.178;16.386;2023-06-26T06:04:40;29.60;80.10
32809;DHT22;19159;48.178;16.386;2023-06-26T06:07:06;29.70;79.00
32809;DHT22;19159;48.178;16.386;2023-06-26T06:09:31;29.70;77.20
32809;DHT22;19159;48.178;16.386;2023-06-26T06:11:59;29.80;77.90
32809;DHT22;19159;48.178;16.386;2023-06-26T06:14:24;29.90;79.30
32809;DHT22;19159;48.178;16.386;2023-06-26T06:16:50;29.90;78.00
32809;DHT22;19159;48.178;16.386;2023-06-26T06:19:15;29.90;77.50
32809;DHT22;19159;48.178;16.386;2023-06-26T06:21:41;29.90;77.60
32809;DHT22;19159;48.178;16.386;2023-06-26T06:24:08;29.90;75.60
32809;DHT22;19159;48.178;16.386;2023-06-26T06:26:35;30.00;74.80
32809;DHT22;19159;48.178;16.386;2023-06-26T06:29:01;30.00;74.40
32809;DHT22;19159;48.178;16.386;2023-06-26T06:31:26;30.00;73.90
32809;DHT22;19159;48.178;16.386;2023-06-26T06:33:54;29.80;73.90
32809;DHT22;19159;48.178;16.386;2023-06-26T06:36:20;29.80;74.30
32809;DHT22;19159;48.178;16.386;2023-06-26T06:38:45;30.00;74.50
32809;DHT22;19159;48.178;16.386;2023-06-26T06:41:11;30.30;73.50
32809;DHT22;19159;48.178;16.386;2023-06-26T06:43:38;30.40;73.00
32809;DHT22;19159;48.178;16.386;2023-06-26T06:46:04;30.50;72.60
32809;DHT22;19159;48.178;16.386;2023-06-26T06:48:30;30.60;71.90
32809;DHT22;19159;48.178;16.386;2023-06-26T06:50:56;30.60;72.80
32809;DHT22;19159;48.178;16.386;2023-06-26T06:53:21;30.20;70.50
32809;DHT22;19159;48.178;16.386;2023-06-26T06:55:51;30.00;71.40
32809;DHT22;19159;48.178;16.386;2023-06-26T06:58:16;30.00;71.80
32809;DHT22;19159;48.178;16.386;2023-06-26T07:00:45;30.10;72.40
32809;DHT22;19159;48.178;16.386;2023-06-26T07:03:11;30.00;70.00
32809;DHT22;19159;48.178;16.386;2023-06-26T07:05:37;29.80;70.90
32809;DHT22;19159;48.178;16.386;2023-06-26T07:08:03;29.80;70.90
32809;DHT22;19159;48.178;16.386;2023-06-26T07:10:29;29.90;71.90
32809;DHT22;19159;48.178;16.386;2023-06-26T07:12:55;30.10;72.60
32809;DHT22;19159;48.178;16.386;2023-06-26T07:15:21;30.40;72.30
32809;DHT22;19159;48.178;16.386;2023-06-26T07:17:47;29.90;69.80
32809;DHT22;19159;48.178;16.386;2023-06-26T07:20:12;29.50;71.80
32809;DHT22;19159;48.178;16.386;2023-06-26T07:22:41;29.90;72.70
32809;DHT22;19159;48.178;16.386;2023-06-26T07:25:08;30.20;71.70
32809;DHT22;19159;48.178;16.386;2023-06-26T07:27:40;30.40;71.70
32809;DHT22;19159;48.178;16.386;2023-06-26T07:30:07;30.60;70.10
32809;DHT22;19159;48.178;16.386;2023-06-26T07:32:36;30.70;69.60
32809;DHT22;19159;48.178;16.386;2023-06-26T07:35:01;30.70;68.60
32809;DHT22;19159;48.178;16.386;2023-06-26T07:37:27;30.90;68.40
32809;DHT22;19159;48.178;16.386;2023-06-26T07:39:53;31.00;68.20
32809;DHT22;19159;48.178;16.386;2023-06-26T07:42:18;31.10;67.60
32809;DHT22;19159;48.178;16.386;2023-06-26T07:44:45;31.20;67.80
32809;DHT22;19159;48.178;16.386;2023-06-26T07:47:10;31.30;68.00
32809;DHT22;19159;48.178;16.386;2023-06-26T07:49:36;31.10;66.80
32809;DHT22;19159;48.178;16.386;2023-06-26T07:52:03;31.20;68.40
32809;DHT22;19159;48.178;16.386;2023-06-26T07:54:28;31.40;67.60
32809;DHT22;19159;48.178;16.386;2023-06-26T07:56:59;31.60;67.70
32809;DHT22;19159;48.178;16.386;2023-06-26T07:59:26;31.70;67.70
32809;DHT22;19159;48.178;16.386;2023-06-26T08:01:53;31.70;67.70
32809;DHT22;19159;48.178;16.386;2023-06-26T08:04:20;31.90;67.00
32809;DHT22;19159;48.178;16.386;2023-06-26T08:06:51;31.80;65.50
32809;DHT22;19159;48.178;16.386;2023-06-26T08:09:19;31.40;65.70
32809;DHT22;19159;48.178;16.386;2023-06-26T08:11:45;31.50;67.00
32809;DHT22;19159;48.178;16.386;2023-06-26T08:14:11;31.60;67.30
32809;DHT22;19159;48.178;16.386;2023-06-26T08:16:40;31.60;66.20
32809;DHT22;19159;48.178;16.386;2023-06-26T08:19:05;31.50;64.90
32809;DHT22;19159;48.178;16.386;2023-06-26T08:21:31;31.50;66.20
32809;DHT22;19159;48.178;16.386;2023-06-26T08:23:57;31.60;66.30
32809;DHT22;19159;48.178;16.386;2023-06-26T08:26:23;31.70;66.50
32809;DHT22;19159;48.178;16.386;2023-06-26T08:28:48;31.80;65.50
32809;DHT22;19159;48.178;16.386;2023-06-26T08:31:14;31.70;65.40
32809;DHT22;19159;48.178;16.386;2023-06-26T08:33:39;31.60;65.00
32809;DHT22;19159;48.178;16.386;2023-06-26T08:36:05;31.10;65.00
32809;DHT22;19159;48.178;16.386;2023-06-26T08:38:31;30.90;66.30
32809;DHT22;19159;48.178;16.386;2023-06-26T08:40:56;30.90;66.70
32809;DHT22;19159;48.178;16.386;2023-06-26T08:43:22;30.80;66.10
32809;DHT22;19159;48.178;16.386;2023-06-26T08:45:48;30.50;67.20
32809;DHT22;19159;48.178;16.386;2023-06-26T08:48:17;30.50;68.10
32809;DHT22;19159;48.178;16.386;2023-06-26T08:50:43;30.50;68.90
32809;DHT22;19159;48.178;16.386;2023-06-26T08:55:53;31.00;67.90
32809;DHT22;19159;48.178;16.386;2023-06-26T08:58:20;31.20;67.80
32809;DHT22;19159;48.178;16.386;2023-06-26T09:00:45;31.40;67.40
32809;DHT22;19159;48.178;16.386;2023-06-26T09:03:12;31.40;66.60
32809;DHT22;19159;48.178;16.386;2023-06-26T09:05:38;31.40;66.80
32809;DHT22;19159;48.178;16.386;2023-06-26T09:08:04;31.10;66.60
32809;DHT22;19159;48.178;16.386;2023-06-26T09:10:31;30.80;67.30
32809;DHT22;19159;48.178;16.386;2023-06-26T09:12:56;30.30;67.70
32809;DHT22;19159;48.178;16.386;2023-06-26T09:15:23;30.10;67.90
32809;DHT22;19159;48.178;16.386;2023-06-26T09:17:49;30.00;68.80
32809;DHT22;19159;48.178;16.386;2023-06-26T09:20:15;30.30;69.30
32809;DHT22;19159;48.178;16.386;2023-06-26T09:22:47;30.50;69.30
32809;DHT22;19159;48.178;16.386;2023-06-26T09:25:14;30.70;68.30
32809;DHT22;19159;48.178;16.386;2023-06-26T09:27:39;30.40;68.10
32809;DHT22;19159;48.178;16.386;2023-06-26T09:30:08;30.50;69.20
32809;DHT22;19159;48.178;16.386;2023-06-26T09:32:35;30.70;69.30
32809;DHT22;19159;48.178;16.386;2023-06-26T09:35:02;30.80;69.10
32809;DHT22;19159;48.178;16.386;2023-06-26T09:37:29;31.10;68.80
32809;DHT22;19159;48.178;16.386;2023-06-26T09:39:54;30.80;69.00
32809;DHT22;19159;48.178;16.386;2023-06-26T09:42:20;31.10;68.40
32809;DHT22;19159;48.178;16.386;2023-06-26T09:44:47;31.30;68.00
32809;DHT22;19159;48.178;16.386;2023-06-26T09:47:16;31.40;68.00
32809;DHT22;19159;48.178;16.386;2023-06-26T09:49:43;31.60;68.60
32809;DHT22;19159;48.178;16.386;2023-06-26T09:52:09;31.80;68.00
32809;DHT22;19159;48.178;16.386;2023-06-26T09:54:35;31.90;67.70
32809;DHT22;19159;48.178;16.386;2023-06-26T09:57:10;32.00;67.70
32809;DHT22;19159;48.178;16.386;2023-06-26T09:59:37;32.00;67.20
32809;DHT22;19159;48.178;16.386;2023-06-26T10:02:03;32.10;67.20
32809;DHT22;19159;48.178;16.386;2023-06-26T10:04:29;32.30;67.00
32809;DHT22;19159;48.178;16.386;2023-06-26T10:06:56;32.30;66.70
32809;DHT22;19159;48.178;16.386;2023-06-26T10:09:23;32.20;66.10
32809;DHT22;19159;48.178;16.386;2023-06-26T10:12:02;32.30;66.10
32809;DHT22;19159;48.178;16.386;2023-06-26T10:14:34;32.20;66.00
32809;DHT22;19159;48.178;16.386;2023-06-26T10:17:04;32.30;65.50
32809;DHT22;19159;48.178;16.386;2023-06-26T10:19:33;32.50;65.60
32809;DHT22;19159;48.178;16.386;2023-06-26T10:21:58;32.50;65.70
32809;DHT22;19159;48.178;16.386;2023-06-26T10:24:26;32.70;66.00
32809;DHT22;19159;48.178;16.386;2023-06-26T10:27:10;32.70;64.60
32809;DHT22;19159;48.178;16.386;2023-06-26T10:29:37;32.90;65.00
32809;DHT22;19159;48.178;16.386;2023-06-26T10:32:04;32.90;65.30
32809;DHT22;19159;48.178;16.386;2023-06-26T10:34:31;32.90;64.90
32809;DHT22;19159;48.178;16.386;2023-06-26T10:37:01;32.90;64.50
32809;DHT22;19159;48.178;16.386;2023-06-26T10:39:54;32.90;62.90
32809;DHT22;19159;48.178;16.386;2023-06-26T10:42:34;32.90;62.60
32809;DHT22;19159;48.178;16.386;2023-06-26T10:45:15;32.90;63.10
32809;DHT22;19159;48.178;16.386;2023-06-26T10:47:42;32.90;62.50
32809;DHT22;19159;48.178;16.386;2023-06-26T10:50:23;33.00;61.80
32809;DHT22;19159;48.178;16.386;2023-06-26T10:55:59;32.90;61.40
32809;DHT22;19159;48.178;16.386;2023-06-26T10:58:41;32.90;62.20
32809;DHT22;19159;48.178;16.386;2023-06-26T11:03:46;32.90;64.20
32809;DHT22;19159;48.178;16.386;2023-06-26T11:06:17;32.90;63.90
32809;DHT22;19159;48.178;16.386;2023-06-26T11:08:51;33.00;64.20
32809;DHT22;19159;48.178;16.386;2023-06-26T11:11:19;32.70;61.90
32809;DHT22;19159;48.178;16.386;2023-06-26T11:13:46;32.90;62.30
32809;DHT22;19159;48.178;16.386;2023-06-26T11:16:13;32.50;61.80
32809;DHT22;19159;48.178;16.386;2023-06-26T11:18:40;32.70;63.10
32809;DHT22;19159;48.178;16.386;2023-06-26T11:21:10;32.80;62.80
32809;DHT22;19159;48.178;16.386;2023-06-26T11:23:39;32.90;62.50
32809;DHT22;19159;48.178;16.386;2023-06-26T11:26:19;32.90;62.90
32809;DHT22;19159;48.178;16.386;2023-06-26T11:28:54;33.00;62.80
32809;DHT22;19159;48.178;16.386;2023-06-26T11:31:28;33.20;62.30
32809;DHT22;19159;48.178;16.386;2023-06-26T11:33:56;33.20;62.50
32809;DHT22;19159;48.178;16.386;2023-06-26T11:36:26;33.30;62.30
32809;DHT22;19159;48.178;16.386;2023-06-26T11:38:56;33.30;61.90
32809;DHT22;19159;48.178;16.386;2023-06-26T11:41:23;33.30;62.20
32809;DHT22;19159;48.178;16.386;2023-06-26T11:43:50;33.30;63.10
32809;DHT22;19159;48.178;16.386;2023-06-26T11:46:17;33.30;62.30
32809;DHT22;19159;48.178;16.386;2023-06-26T11:48:43;33.20;61.60
32809;DHT22;19159;48.178;16.386;2023-06-26T11:51:09;33.20;61.30
32809;DHT22;19159;48.178;16.386;2023-06-26T11:53:42;33.00;61.90
32809;DHT22;19159;48.178;16.386;2023-06-26T11:56:09;33.00;62.30
32809;DHT22;19159;48.178;16.386;2023-06-26T11:58:36;33.00;62.60
32809;DHT22;19159;48.178;16.386;2023-06-26T12:01:01;33.10;62.30
32809;DHT22;19159;48.178;16.386;2023-06-26T12:03:29;33.10;61.90
32809;DHT22;19159;48.178;16.386;2023-06-26T12:05:55;33.20;61.40
32809;DHT22;19159;48.178;16.386;2023-06-26T12:08:21;32.50;61.80
32809;DHT22;19159;48.178;16.386;2023-06-26T12:10:47;32.20;62.20
32809;DHT22;19159;48.178;16.386;2023-06-26T12:13:14;31.90;62.70
32809;DHT22;19159;48.178;16.386;2023-06-26T12:15:39;32.10;63.10
32809;DHT22;19159;48.178;16.386;2023-06-26T12:18:09;32.00;63.30
32809;DHT22;19159;48.178;16.386;2023-06-26T12:20:40;32.10;64.00
32809;DHT22;19159;48.178;16.386;2023-06-26T12:23:12;32.30;63.80
32809;DHT22;19159;48.178;16.386;2023-06-26T12:25:38;32.10;63.20
32809;DHT22;19159;48.178;16.386;2023-06-26T12:28:03;32.10;63.90
32809;DHT22;19159;48.178;16.386;2023-06-26T12:30:40;32.20;63.70
32809;DHT22;19159;48.178;16.386;2023-06-26T12:33:13;32.00;62.80
32809;DHT22;19159;48.178;16.386;2023-06-26T12:35:39;31.80;63.30
32809;DHT22;19159;48.178;16.386;2023-06-26T12:38:07;32.00;63.60
32809;DHT22;19159;48.178;16.386;2023-06-26T12:40:35;32.00;63.30
32809;DHT22;19159;48.178;16.386;2023-06-26T12:43:02;32.10;63.40
32809;DHT22;19159;48.178;16.386;2023-06-26T12:45:37;32.30;63.40
32809;DHT22;19159;48.178;16.386;2023-06-26T12:48:11;32.30;62.80
32809;DHT22;19159;48.178;16.386;2023-06-26T12:50:46;32.30;62.80
32809;DHT22;19159;48.178;16.386;2023-06-26T12:53:12;32.00;61.80
32809;DHT22;19159;48.178;16.386;2023-06-26T12:55:37;32.10;63.00
32809;DHT22;19159;48.178;16.386;2023-06-26T12:58:03;32.00;62.70
32809;DHT22;19159;48.178;16.386;2023-06-26T13:00:29;32.10;62.80
32809;DHT22;19159;48.178;16.386;2023-06-26T13:02:55;32.20;63.30
32809;DHT22;19159;48.178;16.386;2023-06-26T13:05:21;32.10;63.20
32809;DHT22;19159;48.178;16.386;2023-06-26T13:07:47;32.00;63.40
32809;DHT22;19159;48.178;16.386;2023-06-26T13:10:12;31.90;63.60
32809;DHT22;19159;48.178;16.386;2023-06-26T13:12:38;31.60;64.00
32809;DHT22;19159;48.178;16.386;2023-06-26T13:15:04;31.70;64.50
32809;DHT22;19159;48.178;16.386;2023-06-26T13:17:30;31.90;65.00
32809;DHT22;19159;48.178;16.386;2023-06-26T13:19:57;32.10;65.10
32809;DHT22;19159;48.178;16.386;2023-06-26T13:22:22;32.30;64.80
32809;DHT22;19159;48.178;16.386;2023-06-26T13:24:48;32.50;64.70
32809;DHT22;19159;48.178;16.386;2023-06-26T13:27:14;32.50;64.40
32809;DHT22;19159;48.178;16.386;2023-06-26T13:29:41;32.60;64.10
32809;DHT22;19159;48.178;16.386;2023-06-26T13:32:07;32.60;63.70
32809;DHT22;19159;48.178;16.386;2023-06-26T13:34:33;32.40;63.80
32809;DHT22;19159;48.178;16.386;2023-06-26T13:36:59;32.30;64.00
32809;DHT22;19159;48.178;16.386;2023-06-26T13:39:27;32.40;64.60
32809;DHT22;19159;48.178;16.386;2023-06-26T13:41:53;32.50;64.60
32809;DHT22;19159;48.178;16.386;2023-06-26T13:44:18;32.50;64.50
32809;DHT22;19159;48.178;16.386;2023-06-26T13:46:44;32.60;64.60
32809;DHT22;19159;48.178;16.386;2023-06-26T13:49:09;32.60;64.60
32809;DHT22;19159;48.178;16.386;2023-06-26T13:51:35;32.60;64.30
32809;DHT22;19159;48.178;16.386;2023-06-26T13:54:01;32.70;64.40
32809;DHT22;19159;48.178;16.386;2023-06-26T13:56:26;32.70;64.40
32809;DHT22;19159;48.178;16.386;2023-06-26T13:58:53;32.80;64.30
32809;DHT22;19159;48.178;16.386;2023-06-26T14:01:19;32.80;64.60
32809;DHT22;19159;48.178;16.386;2023-06-26T14:03:45;32.70;64.00
32809;DHT22;19159;48.178;16.386;2023-06-26T14:06:10;32.70;64.20
32809;DHT22;19159;48.178;16.386;2023-06-26T14:08:36;32.70;64.40
32809;DHT22;19159;48.178;16.386;2023-06-26T14:11:02;32.80;64.80
32809;DHT22;19159;48.178;16.386;2023-06-26T14:13:27;32.80;64.90
32809;DHT22;19159;48.178;16.386;2023-06-26T14:15:53;32.70;65.30
32809;DHT22;19159;48.178;16.386;2023-06-26T14:18:19;32.70;65.20
32809;DHT22;19159;48.178;16.386;2023-06-26T14:20:46;32.70;65.00
32809;DHT22;19159;48.178;16.386;2023-06-26T14:23:12;32.80;66.10
32809;DHT22;19159;48.178;16.386;2023-06-26T14:25:38;32.80;65.20
32809;DHT22;19159;48.178;16.386;2023-06-26T14:28:03;32.80;65.10
32809;DHT22;19159;48.178;16.386;2023-06-26T14:30:29;32.90;65.00
32809;DHT22;19159;48.178;16.386;2023-06-26T14:32:54;32.90;65.00
32809;DHT22;19159;48.178;16.386;2023-06-26T14:35:20;32.90;64.80
32809;DHT22;19159;48.178;16.386;2023-06-26T14:37:47;32.90;64.80
32809;DHT22;19159;48.178;16.386;2023-06-26T14:40:13;32.80;65.20
32809;DHT22;19159;48.178;16.386;2023-06-26T14:42:39;32.70;65.00
32809;DHT22;19159;48.178;16.386;2023-06-26T14:45:05;32.60;65.20
32809;DHT22;19159;48.178;16.386;2023-06-26T14:47:30;32.60;65.10
32809;DHT22;19159;48.178;16.386;2023-06-26T14:49:56;32.70;65.10
32809;DHT22;19159;48.178;16.386;2023-06-26T14:52:22;32.70;65.10
32809;DHT22;19159;48.178;16.386;2023-06-26T14:54:47;32.70;65.30
32809;DHT22;19159;48.178;16.386;2023-06-26T14:57:13;32.70;65.00
32809;DHT22;19159;48.178;16.386;2023-06-26T14:59:38;32.70;65.50
32809;DHT22;19159;48.178;16.386;2023-06-26T15:02:04;32.80;65.20
32809;DHT22;19159;48.178;16.386;2023-06-26T15:04:31;32.90;65.10
32809;DHT22;19159;48.178;16.386;2023-06-26T15:06:57;32.90;64.30
32809;DHT22;19159;48.178;16.386;2023-06-26T15:09:23;32.60;65.00
32809;DHT22;19159;48.178;16.386;2023-06-26T15:11:49;32.50;65.80
32809;DHT22;19159;48.178;16.386;2023-06-26T15:14:14;32.70;65.50
32809;DHT22;19159;48.178;16.386;2023-06-26T15:16:40;32.70;65.50
32809;DHT22;19159;48.178;16.386;2023-06-26T15:19:06;32.70;65.50
32809;DHT22;19159;48.178;16.386;2023-06-26T15:21:31;32.80;65.50
32809;DHT22;19159;48.178;16.386;2023-06-26T15:23:57;32.70;65.70
32809;DHT22;19159;48.178;16.386;2023-06-26T15:26:22;32.80;65.80